createdAt,value
2018-01-06T00:02:18.595Z,11.44
2018-01-06T00:04:49.530Z,11.48
2018-01-06T00:07:20.515Z,11.47
2018-01-06T00:09:51.434Z,11.45
2018-01-06T00:12:22.428Z,11.39
2018-01-06T00:14:53.375Z,11.32
2018-01-06T00:17:24.338Z,11.33
2018-01-06T00:19:55.270Z,11.32
2018-01-06T00:22:26.261Z,11.29
2018-01-06T00:24:57.228Z,11.25
2018-01-06T00:27:28.155Z,11.24
2018-01-06T00:29:59.136Z,11.25
2018-01-06T00:32:30.115Z,11.26
2018-01-06T00:35:01.081Z,11.26
2018-01-06T00:37:32.054Z,11.29
2018-01-06T00:40:03.036Z,11.28
2018-01-06T00:42:33.925Z,11.27
2018-01-06T00:45:04.849Z,11.30
2018-01-06T00:47:35.790Z,11.35
2018-01-06T00:50:06.787Z,11.39
2018-01-06T00:52:37.718Z,11.42
2018-01-06T00:55:08.704Z,11.45
2018-01-06T00:57:39.723Z,11.46
2018-01-06T01:00:10.738Z,11.46
2018-01-06T01:02:41.647Z,11.42
2018-01-06T01:05:12.564Z,11.36
2018-01-06T01:07:43.492Z,11.37
2018-01-06T01:10:14.460Z,11.42
2018-01-06T01:12:45.452Z,11.46
2018-01-06T01:15:16.446Z,11.50
2018-01-06T01:17:47.410Z,11.51
2018-01-06T01:20:18.359Z,11.54
2018-01-06T01:22:49.335Z,11.53
2018-01-06T01:25:20.310Z,11.52
2018-01-06T01:27:51.256Z,11.54
2018-01-06T01:30:22.211Z,11.55
2018-01-06T01:32:53.181Z,11.52
2018-01-06T01:35:24.118Z,11.46
2018-01-06T01:37:55.073Z,11.38
2018-01-06T01:40:26.011Z,11.30
2018-01-06T01:42:56.950Z,11.21
2018-01-06T01:45:27.859Z,11.23
2018-01-06T01:47:58.796Z,11.22
2018-01-06T01:50:29.805Z,11.26
2018-01-06T01:53:00.704Z,11.27
2018-01-06T01:55:31.696Z,11.25
2018-01-06T01:58:02.640Z,11.18
2018-01-06T02:00:33.617Z,11.09
2018-01-06T02:03:04.608Z,11.10
2018-01-06T02:05:35.632Z,11.11
2018-01-06T02:08:06.589Z,11.12
2018-01-06T02:10:37.582Z,11.14
2018-01-06T02:13:08.548Z,11.15
2018-01-06T02:15:40.171Z,11.17
2018-01-06T02:18:11.241Z,11.21
2018-01-06T02:20:42.207Z,11.22
2018-01-06T02:23:13.192Z,11.24
2018-01-06T02:25:44.128Z,11.29
2018-01-06T02:28:15.112Z,11.33
2018-01-06T02:30:46.064Z,11.32
2018-01-06T02:33:17.016Z,11.26
2018-01-06T02:35:47.990Z,11.19
2018-01-06T02:38:18.944Z,11.13
2018-01-06T02:40:49.915Z,11.13
2018-01-06T02:43:20.860Z,11.10
2018-01-06T02:45:51.796Z,11.12
2018-01-06T02:48:22.739Z,11.10
2018-01-06T02:50:53.713Z,11.08
2018-01-06T02:53:24.648Z,11.07
2018-01-06T02:55:55.602Z,11.08
2018-01-06T02:58:26.545Z,11.14
2018-01-06T03:00:57.506Z,11.19
2018-01-06T03:03:35.629Z,11.19
2018-01-06T03:06:06.601Z,11.13
2018-01-06T03:08:37.580Z,11.07
2018-01-06T03:11:08.499Z,11.03
2018-01-06T03:13:39.474Z,11.02
2018-01-06T03:16:10.434Z,11.03
2018-01-06T03:18:41.428Z,11.06
2018-01-06T03:21:12.379Z,11.11
2018-01-06T03:23:43.341Z,11.18
2018-01-06T03:26:14.291Z,11.19
2018-01-06T03:28:45.222Z,11.19
2018-01-06T03:31:16.206Z,11.20
2018-01-06T03:33:47.135Z,11.23
2018-01-06T03:36:18.091Z,11.26
2018-01-06T03:38:49.068Z,11.19
2018-01-06T03:41:20.038Z,11.18
2018-01-06T03:43:51.040Z,11.14
2018-01-06T03:46:21.959Z,11.08
2018-01-06T03:48:52.897Z,11.02
2018-01-06T03:51:23.830Z,11.00
2018-01-06T03:53:54.936Z,10.97
2018-01-06T03:56:25.926Z,10.94
2018-01-06T03:58:56.946Z,10.93
2018-01-06T04:01:27.987Z,10.96
2018-01-06T04:03:58.944Z,10.95
2018-01-06T04:06:29.868Z,10.99
2018-01-06T04:09:00.815Z,11.05
2018-01-06T04:11:31.811Z,11.08
2018-01-06T04:14:02.729Z,11.10
2018-01-06T04:16:33.708Z,11.13
2018-01-06T04:19:04.664Z,11.14
2018-01-06T04:21:35.652Z,11.14
2018-01-06T04:24:06.607Z,11.19
2018-01-06T04:26:37.614Z,11.15
2018-01-06T04:29:08.568Z,11.08
2018-01-06T04:31:39.517Z,10.99
2018-01-06T04:34:10.508Z,11.06
2018-01-06T04:36:41.436Z,11.14
2018-01-06T04:39:12.412Z,11.22
2018-01-06T04:41:43.325Z,11.26
2018-01-06T04:44:14.284Z,11.28
2018-01-06T04:46:45.223Z,11.28
2018-01-06T04:49:16.212Z,11.28
2018-01-06T04:51:54.204Z,11.28
2018-01-06T04:54:25.193Z,11.28
2018-01-06T04:56:56.184Z,11.27
2018-01-06T04:59:27.161Z,11.24
2018-01-06T05:01:58.146Z,11.27
2018-01-06T05:04:29.082Z,11.25
2018-01-06T05:07:00.021Z,11.23
2018-01-06T05:09:30.946Z,11.20
2018-01-06T05:12:01.894Z,11.18
2018-01-06T05:14:32.820Z,11.18
2018-01-06T05:17:03.749Z,11.20
2018-01-06T05:19:34.700Z,11.21
2018-01-06T05:22:05.633Z,11.18
2018-01-06T05:24:36.582Z,11.16
2018-01-06T05:27:07.512Z,11.14
2018-01-06T05:29:38.483Z,11.02
2018-01-06T05:32:09.416Z,10.90
2018-01-06T05:34:40.420Z,10.76
2018-01-06T05:37:11.414Z,10.71
2018-01-06T05:39:42.375Z,10.73
2018-01-06T05:42:13.325Z,10.86
2018-01-06T05:44:44.369Z,10.91
2018-01-06T05:47:15.365Z,10.94
2018-01-06T05:49:46.328Z,10.99
2018-01-06T05:52:17.291Z,11.06
2018-01-06T05:54:48.274Z,11.13
2018-01-06T05:57:19.223Z,11.13
2018-01-06T05:59:50.120Z,11.14
2018-01-06T06:02:21.089Z,11.17
2018-01-06T06:04:52.042Z,11.19
2018-01-06T06:07:22.945Z,11.16
2018-01-06T06:09:53.896Z,11.13
2018-01-06T06:12:24.874Z,11.15
2018-01-06T06:14:55.944Z,11.14
2018-01-06T06:17:26.882Z,11.13
2018-01-06T06:19:57.840Z,11.06
2018-01-06T06:22:28.811Z,11.03
2018-01-06T06:24:59.791Z,11.09
2018-01-06T06:27:30.737Z,11.13
2018-01-06T06:30:01.749Z,11.10
2018-01-06T06:32:32.717Z,11.06
2018-01-06T06:35:03.635Z,11.04
2018-01-06T06:37:34.610Z,11.07
2018-01-06T06:40:05.615Z,11.08
2018-01-06T06:42:36.595Z,11.11
2018-01-06T06:45:07.549Z,11.18
2018-01-06T06:47:38.524Z,11.23
2018-01-06T06:50:09.444Z,11.21
2018-01-06T06:52:40.427Z,11.12
2018-01-06T06:55:11.377Z,11.11
2018-01-06T06:57:42.422Z,10.98
2018-01-06T07:00:13.414Z,10.84
2018-01-06T07:02:44.361Z,10.76
2018-01-06T07:05:15.273Z,10.77
2018-01-06T07:07:46.218Z,10.90
2018-01-06T07:10:17.191Z,10.94
2018-01-06T07:12:48.334Z,11.05
2018-01-06T07:15:19.494Z,11.06
2018-01-06T07:17:50.473Z,11.14
2018-01-06T07:20:21.460Z,11.24
2018-01-06T07:22:52.369Z,11.34
2018-01-06T07:25:23.305Z,11.44
2018-01-06T07:27:54.218Z,11.43
2018-01-06T07:30:25.208Z,11.28
2018-01-06T07:32:56.159Z,11.19
2018-01-06T07:35:27.104Z,11.22
2018-01-06T07:37:58.082Z,11.22
2018-01-06T07:40:29.064Z,11.16
2018-01-06T07:43:00.017Z,11.07
2018-01-06T07:45:30.989Z,10.94
2018-01-06T07:48:01.988Z,10.79
2018-01-06T07:50:32.950Z,10.86
2018-01-06T07:53:03.879Z,11.07
2018-01-06T07:55:34.826Z,11.20
2018-01-06T07:58:05.787Z,11.38
2018-01-06T08:00:36.765Z,11.45
2018-01-06T08:03:07.693Z,11.52
2018-01-06T08:05:38.616Z,11.50
2018-01-06T08:08:09.568Z,11.51
2018-01-06T08:10:40.513Z,11.46
2018-01-06T08:13:11.448Z,11.43
2018-01-06T08:15:42.398Z,11.42
2018-01-06T08:18:14.206Z,11.62
2018-01-06T08:20:45.231Z,11.78
2018-01-06T08:23:16.214Z,11.87
2018-01-06T08:25:47.192Z,11.94
2018-01-06T08:28:18.177Z,12.09
2018-01-06T08:30:49.213Z,12.14
2018-01-06T08:33:20.100Z,12.19
2018-01-06T08:35:51.109Z,12.28
2018-01-06T08:38:29.100Z,12.41
2018-01-06T08:41:00.085Z,12.51
2018-01-06T08:43:31.029Z,12.55
2018-01-06T08:46:02.892Z,12.64
2018-01-06T08:48:33.880Z,12.55
2018-01-06T08:51:04.823Z,12.73
2018-01-06T08:53:35.811Z,13.09
2018-01-06T08:56:06.763Z,13.07
2018-01-06T08:58:37.704Z,13.20
2018-01-06T09:01:08.731Z,13.35
2018-01-06T09:03:39.696Z,13.59
2018-01-06T09:06:10.686Z,13.66
2018-01-06T09:08:41.707Z,13.89
2018-01-06T09:11:12.658Z,13.90
2018-01-06T09:13:43.658Z,14.22
2018-01-06T09:16:14.634Z,15.71
2018-01-06T09:18:45.608Z,17.89
2018-01-06T09:21:16.571Z,19.92
2018-01-06T09:23:47.583Z,20.90
2018-01-06T09:26:18.530Z,21.50
2018-01-06T09:28:49.509Z,21.96
2018-01-06T09:31:20.458Z,22.08
2018-01-06T09:33:51.492Z,22.15
2018-01-06T09:36:22.439Z,22.97
2018-01-06T09:38:53.463Z,23.47
2018-01-06T09:41:24.377Z,23.67
2018-01-06T09:43:56.106Z,24.48
2018-01-06T09:46:27.088Z,24.54
2018-01-06T09:48:58.120Z,24.94
2018-01-06T09:51:29.098Z,25.51
2018-01-06T09:54:00.116Z,26.10
2018-01-06T09:56:31.150Z,26.51
2018-01-06T09:59:02.106Z,26.73
2018-01-06T10:01:33.062Z,26.83
2018-01-06T10:04:04.041Z,27.07
2018-01-06T10:06:35.031Z,27.11
2018-01-06T10:09:05.981Z,26.95
2018-01-06T10:11:36.978Z,26.89
2018-01-06T10:14:07.879Z,26.88
2018-01-06T10:16:38.857Z,27.04
2018-01-06T10:19:09.781Z,26.72
2018-01-06T10:21:40.723Z,26.76
2018-01-06T10:24:11.666Z,26.67
2018-01-06T10:26:42.606Z,26.76
2018-01-06T10:29:13.624Z,26.87
2018-01-06T10:31:44.600Z,26.89
2018-01-06T10:34:15.556Z,26.26
2018-01-06T10:36:46.508Z,25.32
2018-01-06T10:39:17.505Z,24.89
2018-01-06T10:41:48.476Z,24.73
2018-01-06T10:44:19.457Z,24.83
2018-01-06T10:46:50.412Z,24.91
2018-01-06T10:49:21.341Z,24.61
2018-01-06T10:51:52.320Z,23.83
2018-01-06T10:54:23.305Z,23.90
2018-01-06T10:56:54.315Z,23.65
2018-01-06T10:59:25.292Z,23.71
2018-01-06T11:02:02.388Z,23.83
2018-01-06T11:04:33.370Z,23.81
2018-01-06T11:07:04.470Z,23.91
2018-01-06T11:09:35.537Z,23.52
2018-01-06T11:12:06.487Z,23.17
2018-01-06T11:14:37.437Z,22.87
2018-01-06T11:17:08.398Z,22.36
2018-01-06T11:19:39.479Z,21.83
2018-01-06T11:22:10.760Z,21.61
2018-01-06T11:24:41.700Z,21.44
2018-01-06T11:27:12.674Z,21.57
2018-01-06T11:29:43.616Z,21.44
2018-01-06T11:32:14.580Z,21.61
2018-01-06T11:34:45.542Z,21.22
2018-01-06T11:37:16.494Z,20.40
2018-01-06T11:39:47.503Z,19.56
2018-01-06T11:42:18.416Z,18.53
2018-01-06T11:44:49.330Z,17.82
2018-01-06T11:47:20.303Z,17.37
2018-01-06T11:49:51.228Z,16.94
2018-01-06T11:52:22.222Z,16.58
2018-01-06T11:54:53.201Z,16.36
2018-01-06T11:57:24.200Z,16.07
2018-01-06T11:59:55.206Z,15.93
2018-01-06T12:02:26.158Z,15.88
2018-01-06T12:04:57.118Z,15.66
2018-01-06T12:07:28.122Z,15.65
2018-01-06T12:09:59.071Z,15.50
2018-01-06T12:12:30.017Z,15.43
2018-01-06T12:15:00.986Z,15.36
2018-01-06T12:17:31.942Z,15.28
2018-01-06T12:20:02.906Z,15.31
2018-01-06T12:22:33.906Z,15.36
2018-01-06T12:25:04.878Z,15.21
2018-01-06T12:27:35.826Z,15.20
2018-01-06T12:30:06.834Z,15.26
2018-01-06T12:32:37.834Z,15.43
2018-01-06T12:35:08.779Z,15.64
2018-01-06T12:37:39.750Z,15.58
2018-01-06T12:40:10.739Z,15.66
2018-01-06T12:42:41.752Z,15.68
2018-01-06T12:45:12.772Z,15.68
2018-01-06T12:47:43.735Z,15.63
2018-01-06T12:50:14.730Z,15.60
2018-01-06T12:52:45.744Z,15.65
2018-01-06T12:55:16.778Z,15.60
2018-01-06T12:57:47.712Z,15.46
2018-01-06T13:00:18.757Z,15.14
2018-01-06T13:02:49.699Z,14.78
2018-01-06T13:05:20.710Z,14.58
2018-01-06T13:07:51.671Z,14.38
2018-01-06T13:10:22.614Z,14.16
2018-01-06T13:12:53.593Z,14.22
2018-01-06T13:15:24.546Z,14.38
2018-01-06T13:17:55.464Z,14.52
2018-01-06T13:20:26.486Z,14.59
2018-01-06T13:22:57.524Z,14.38
2018-01-06T13:25:28.563Z,14.12
2018-01-06T13:27:59.525Z,14.05
2018-01-06T13:30:30.483Z,13.89
2018-01-06T13:33:01.448Z,13.97
2018-01-06T13:35:32.447Z,14.04
2018-01-06T13:38:04.254Z,14.16
2018-01-06T13:40:35.237Z,14.18
2018-01-06T13:43:06.224Z,14.27
2018-01-06T13:45:37.194Z,14.14
2018-01-06T13:48:08.160Z,14.00
2018-01-06T13:50:39.173Z,14.01
2018-01-06T13:53:10.124Z,13.73
2018-01-06T13:55:41.126Z,13.71
2018-01-06T13:58:12.072Z,13.71
2018-01-06T14:00:43.028Z,13.62
2018-01-06T14:03:13.967Z,13.63
2018-01-06T14:05:44.971Z,13.68
2018-01-06T14:08:15.917Z,13.55
2018-01-06T14:10:46.885Z,13.47
2018-01-06T14:13:17.830Z,13.34
2018-01-06T14:15:48.899Z,13.30
2018-01-06T14:18:19.925Z,13.26
2018-01-06T14:20:50.916Z,13.27
2018-01-06T14:23:21.905Z,13.14
2018-01-06T14:25:55.458Z,13.10
2018-01-06T14:28:26.498Z,13.09
2018-01-06T14:30:57.438Z,12.96
2018-01-06T14:33:28.403Z,12.94
2018-01-06T14:35:59.338Z,12.90
2018-01-06T14:38:30.303Z,12.94
2018-01-06T14:41:01.242Z,12.95
2018-01-06T14:43:32.250Z,12.76
2018-01-06T14:46:03.213Z,12.78
2018-01-06T14:48:34.223Z,12.85
2018-01-06T14:51:05.208Z,12.83
2018-01-06T14:53:36.176Z,12.88
2018-01-06T14:56:07.146Z,12.91
2018-01-06T14:58:38.135Z,12.94
2018-01-06T15:01:09.139Z,12.97
2018-01-06T15:03:40.168Z,12.88
2018-01-06T15:06:11.159Z,12.76
2018-01-06T15:08:42.073Z,12.74
2018-01-06T15:11:13.024Z,12.67
2018-01-06T15:13:43.985Z,12.68
2018-01-06T15:16:15.025Z,12.61
2018-01-06T15:18:45.982Z,12.50
2018-01-06T15:21:16.944Z,12.43
2018-01-06T15:23:48.018Z,12.32
2018-01-06T15:26:18.946Z,12.19
2018-01-06T15:28:49.923Z,12.03
2018-01-06T15:31:20.842Z,11.95
2018-01-06T15:33:51.837Z,11.85
2018-01-06T15:36:22.805Z,11.78
2018-01-06T15:38:53.818Z,11.70
2018-01-06T15:41:24.793Z,11.68
2018-01-06T15:43:55.795Z,11.68
2018-01-06T15:46:26.803Z,11.62
2018-01-06T15:48:57.794Z,11.55
2018-01-06T15:51:28.807Z,11.55
2018-01-06T15:53:59.730Z,11.49
2018-01-06T15:56:31.450Z,11.39
2018-01-06T15:59:02.421Z,11.37
2018-01-06T16:01:33.413Z,11.32
2018-01-06T16:04:04.352Z,11.25
2018-01-06T16:06:35.354Z,11.21
2018-01-06T16:09:06.293Z,11.14
2018-01-06T16:11:37.262Z,11.05
2018-01-06T16:14:08.214Z,10.95
2018-01-06T16:16:41.406Z,10.84
2018-01-06T16:19:12.391Z,10.77
2018-01-06T16:21:43.356Z,10.72
2018-01-06T16:24:14.328Z,10.64
2018-01-06T16:26:45.313Z,10.58
2018-01-06T16:29:16.308Z,10.49
2018-01-06T16:31:47.257Z,10.42
2018-01-06T16:34:18.242Z,10.35
2018-01-06T16:36:49.216Z,10.26
2018-01-06T16:39:20.212Z,10.16
2018-01-06T16:41:51.169Z,10.08
2018-01-06T16:44:22.207Z,9.94
2018-01-06T16:46:53.189Z,9.87
2018-01-06T16:49:24.150Z,9.78
2018-01-06T16:51:55.048Z,9.76
2018-01-06T16:54:26.054Z,9.75
2018-01-06T16:56:57.071Z,9.74
2018-01-06T16:59:28.044Z,9.70
2018-01-06T17:01:59.005Z,9.70
2018-01-06T17:04:29.996Z,9.68
2018-01-06T17:07:00.989Z,9.70
2018-01-06T17:09:31.966Z,9.69
2018-01-06T17:12:02.944Z,9.68
2018-01-06T17:14:33.914Z,9.63
2018-01-06T17:17:04.853Z,9.59
2018-01-06T17:19:35.807Z,9.57
2018-01-06T17:22:06.757Z,9.55
2018-01-06T17:24:37.741Z,9.53
2018-01-06T17:27:08.778Z,9.50
2018-01-06T17:29:39.789Z,9.49
2018-01-06T17:32:10.836Z,9.47
2018-01-06T17:34:41.762Z,9.46
2018-01-06T17:37:12.774Z,9.44
2018-01-06T17:39:43.917Z,9.40
2018-01-06T17:42:14.903Z,9.36
2018-01-06T17:44:45.828Z,9.32
2018-01-06T17:47:16.831Z,9.33
2018-01-06T17:49:47.786Z,9.31
2018-01-06T17:52:18.754Z,9.36
2018-01-06T17:54:49.735Z,9.38
2018-01-06T17:57:20.757Z,9.43
2018-01-06T17:59:51.726Z,9.53
2018-01-06T18:02:22.781Z,9.57
2018-01-06T18:04:53.736Z,9.66
2018-01-06T18:07:24.726Z,9.71
2018-01-06T18:09:55.650Z,9.79
2018-01-06T18:12:26.666Z,9.84
2018-01-06T18:14:57.635Z,9.94
2018-01-06T18:17:28.617Z,10.03
2018-01-06T18:19:59.737Z,10.05
2018-01-06T18:22:30.694Z,10.13
2018-01-06T18:25:01.822Z,10.16
2018-01-06T18:27:32.878Z,10.14
2018-01-06T18:30:03.852Z,10.11
2018-01-06T18:32:34.746Z,10.09
2018-01-06T18:35:05.775Z,9.99
2018-01-06T18:37:36.755Z,9.90
2018-01-06T18:40:07.714Z,9.90
2018-01-06T18:42:38.636Z,9.88
2018-01-06T18:45:09.630Z,9.81
2018-01-06T18:47:40.565Z,9.67
2018-01-06T18:50:11.524Z,9.51
2018-01-06T18:52:42.502Z,9.36
2018-01-06T18:55:13.469Z,9.26
2018-01-06T18:57:44.467Z,9.19
2018-01-06T19:00:15.426Z,9.14
2018-01-06T19:02:46.406Z,9.09
2018-01-06T19:05:24.482Z,9.02
2018-01-06T19:07:55.459Z,9.06
2018-01-06T19:10:26.414Z,9.15
2018-01-06T19:12:57.412Z,9.34
2018-01-06T19:15:28.426Z,9.40
2018-01-06T19:18:00.314Z,9.55
2018-01-06T19:20:31.331Z,9.68
2018-01-06T19:23:02.300Z,9.84
2018-01-06T19:25:33.303Z,9.99
2018-01-06T19:28:04.282Z,10.13
2018-01-06T19:30:35.297Z,10.14
2018-01-06T19:33:06.219Z,10.08
2018-01-06T19:35:37.201Z,10.08
2018-01-06T19:38:08.157Z,10.03
2018-01-06T19:40:39.175Z,10.00
2018-01-06T19:43:10.135Z,10.05
2018-01-06T19:45:41.095Z,10.08
2018-01-06T19:48:12.160Z,10.05
2018-01-06T19:50:43.152Z,10.02
2018-01-06T19:53:14.144Z,10.02
2018-01-06T19:55:45.102Z,10.06
2018-01-06T19:58:16.118Z,9.97
2018-01-06T20:00:47.124Z,9.81
2018-01-06T20:03:18.134Z,9.79
2018-01-06T20:05:49.125Z,9.76
2018-01-06T20:08:20.121Z,9.79
2018-01-06T20:10:51.111Z,9.76
2018-01-06T20:13:22.079Z,9.68
2018-01-06T20:15:53.020Z,9.65
2018-01-06T20:18:24.002Z,9.58
2018-01-06T20:20:54.965Z,9.60
2018-01-06T20:23:25.943Z,9.56
2018-01-06T20:25:56.910Z,9.52
2018-01-06T20:28:27.929Z,9.46
2018-01-06T20:30:58.988Z,9.40
2018-01-06T20:33:30.020Z,9.44
2018-01-06T20:36:01.053Z,9.45
2018-01-06T20:38:31.979Z,9.40
2018-01-06T20:41:02.982Z,9.20
2018-01-06T20:43:33.960Z,9.12
2018-01-06T20:46:04.969Z,9.16
2018-01-06T20:48:35.895Z,9.19
2018-01-06T20:51:06.881Z,9.22
2018-01-06T20:53:37.906Z,9.04
2018-01-06T20:56:08.842Z,8.91
2018-01-06T20:58:39.797Z,8.99
2018-01-06T21:01:10.855Z,8.95
2018-01-06T21:03:41.771Z,8.80
2018-01-06T21:06:12.876Z,8.75
2018-01-06T21:08:43.832Z,8.85
2018-01-06T21:11:14.793Z,9.01
2018-01-06T21:13:45.794Z,9.10
2018-01-06T21:16:16.735Z,9.09
2018-01-06T21:18:47.779Z,9.15
2018-01-06T21:21:18.732Z,9.17
2018-01-06T21:23:49.688Z,9.20
2018-01-06T21:26:20.659Z,9.18
2018-01-06T21:28:51.659Z,9.19
2018-01-06T21:31:22.694Z,9.25
2018-01-06T21:33:53.713Z,9.27
2018-01-06T21:36:24.650Z,9.32
2018-01-06T21:38:55.618Z,9.31
2018-01-06T21:41:26.626Z,9.23
2018-01-06T21:43:57.637Z,9.13
2018-01-06T21:46:28.687Z,8.91
2018-01-06T21:48:59.597Z,8.79
2018-01-06T21:51:30.614Z,8.80
2018-01-06T21:54:01.610Z,8.79
2018-01-06T21:56:32.560Z,8.83
2018-01-06T21:59:03.698Z,8.76
2018-01-06T22:01:34.655Z,8.68
2018-01-06T22:04:05.619Z,8.62
2018-01-06T22:06:36.581Z,8.69
2018-01-06T22:09:07.706Z,8.80
2018-01-06T22:11:38.722Z,8.79
2018-01-06T22:14:09.734Z,8.74
2018-01-06T22:16:40.754Z,8.73
2018-01-06T22:19:11.713Z,8.73
2018-01-06T22:21:46.298Z,8.74
2018-01-06T22:24:18.173Z,8.77
2018-01-06T22:26:49.119Z,8.78
2018-01-06T22:29:20.071Z,8.85
2018-01-06T22:31:50.991Z,8.83
2018-01-06T22:34:21.968Z,8.73
2018-01-06T22:36:52.955Z,8.59
2018-01-06T22:39:23.886Z,8.70
2018-01-06T22:41:54.825Z,8.86
2018-01-06T22:44:25.803Z,8.93
2018-01-06T22:46:56.787Z,8.90
2018-01-06T22:49:27.752Z,8.83
2018-01-06T22:51:58.703Z,8.85
2018-01-06T22:54:29.612Z,8.86
2018-01-06T22:57:00.569Z,8.87
2018-01-06T22:59:31.503Z,8.83
2018-01-06T23:02:02.440Z,8.80
2018-01-06T23:04:33.474Z,8.81
2018-01-06T23:07:04.435Z,8.68
2018-01-06T23:09:35.374Z,8.71
2018-01-06T23:12:06.451Z,8.70
2018-01-06T23:14:37.436Z,8.58
2018-01-06T23:17:08.390Z,8.54
2018-01-06T23:19:39.371Z,8.60
2018-01-06T23:22:17.387Z,8.61
2018-01-06T23:24:48.326Z,8.48
2018-01-06T23:27:19.308Z,8.45
2018-01-06T23:29:50.265Z,8.34
2018-01-06T23:32:21.222Z,8.25
2018-01-06T23:34:52.190Z,8.25
2018-01-06T23:37:23.104Z,8.23
2018-01-06T23:39:54.051Z,8.12
2018-01-06T23:42:25.016Z,8.08
2018-01-06T23:44:56.007Z,8.06
2018-01-06T23:47:26.932Z,8.00
2018-01-06T23:49:57.938Z,7.89
2018-01-06T23:52:28.887Z,7.84
2018-01-06T23:54:59.874Z,7.73
2018-01-06T23:57:30.827Z,7.83
